sensor_id;sensor_type;location;lat;lon;timestamp;pressure;altitude;pressure_sealevel;temperature;humidity
41830;BME280;38614;43.472;23.936;2023-04-01T00:01:56;99150.91;;;10.80;100.00
41830;BME280;38614;43.472;23.936;2023-04-01T00:04:44;99129.59;;;10.80;100.00
41830;BME280;38614;43.472;23.936;2023-04-01T00:07:33;99133.16;;;10.88;100.00
41830;BME280;38614;43.472;23.936;2023-04-01T00:10:21;99146.25;;;10.91;100.00
41830;BME280;38614;43.472;23.936;2023-04-01T00:13:08;99139.88;;;10.87;100.00
41830;BME280;38614;43.472;23.936;2023-04-01T00:15:57;99130.75;;;10.79;100.00
41830;BME280;38614;43.472;23.936;2023-04-01T00:18:47;99126.00;;;10.73;100.00
41830;BME280;38614;43.472;23.936;2023-04-01T00:21:35;99102.19;;;10.57;100.00
41830;BME280;38614;43.472;23.936;2023-04-01T00:24:24;99151.25;;;10.75;100.00
41830;BME280;38614;43.472;23.936;2023-04-01T00:27:12;99140.66;;;10.80;100.00
41830;BME280;38614;43.472;23.936;2023-04-01T00:30:00;99141.41;;;10.77;100.00
41830;BME280;38614;43.472;23.936;2023-04-01T00:32:52;99136.31;;;10.83;100.00
41830;BME280;38614;43.472;23.936;2023-04-01T00:35:40;99122.03;;;10.74;100.00
41830;BME280;38614;43.472;23.936;2023-04-01T00:38:28;99119.22;;;10.67;100.00
41830;BME280;38614;43.472;23.936;2023-04-01T00:41:16;99120.00;;;10.64;100.00
41830;BME280;38614;43.472;23.936;2023-04-01T00:44:22;99066.50;;;10.31;100.00
41830;BME280;38614;43.472;23.936;2023-04-01T00:47:10;99104.19;;;10.61;100.00
41830;BME280;38614;43.472;23.936;2023-04-01T00:49:59;99093.19;;;10.68;100.00
41830;BME280;38614;43.472;23.936;2023-04-01T00:52:47;99066.63;;;10.49;100.00
41830;BME280;38614;43.472;23.936;2023-04-01T00:55:37;99096.78;;;10.79;100.00
41830;BME280;38614;43.472;23.936;2023-04-01T00:58:29;98998.00;;;9.99;100.00
41830;BME280;38614;43.472;23.936;2023-04-01T01:01:20;99068.19;;;10.50;100.00
41830;BME280;38614;43.472;23.936;2023-04-01T01:04:39;99098.34;;;10.73;100.00
41830;BME280;38614;43.472;23.936;2023-04-01T01:07:44;99093.69;;;10.84;100.00
41830;BME280;38614;43.472;23.936;2023-04-01T01:10:38;99085.72;;;10.75;100.00
41830;BME280;38614;43.472;23.936;2023-04-01T01:13:45;99074.63;;;10.65;100.00
41830;BME280;38614;43.472;23.936;2023-04-01T01:16:44;98980.72;;;10.10;100.00
41830;BME280;38614;43.472;23.936;2023-04-01T01:19:50;99078.19;;;10.69;100.00
41830;BME280;38614;43.472;23.936;2023-04-01T01:22:58;99076.16;;;10.59;100.00
41830;BME280;38614;43.472;23.936;2023-04-01T01:25:59;99071.38;;;10.52;100.00
41830;BME280;38614;43.472;23.936;2023-04-01T01:35:46;99064.56;;;10.39;100.00
41830;BME280;38614;43.472;23.936;2023-04-01T01:38:38;99051.50;;;10.32;100.00
41830;BME280;38614;43.472;23.936;2023-04-01T01:41:27;99029.25;;;10.11;100.00
41830;BME280;38614;43.472;23.936;2023-04-01T01:44:16;99055.50;;;10.35;100.00
41830;BME280;38614;43.472;23.936;2023-04-01T01:47:05;99055.03;;;10.29;100.00
41830;BME280;38614;43.472;23.936;2023-04-01T01:49:54;99022.13;;;10.06;100.00
41830;BME280;38614;43.472;23.936;2023-04-01T01:52:42;99030.03;;;10.11;100.00
41830;BME280;38614;43.472;23.936;2023-04-01T01:55:34;99042.69;;;10.16;100.00
41830;BME280;38614;43.472;23.936;2023-04-01T02:01:16;98989.72;;;9.99;100.00
41830;BME280;38614;43.472;23.936;2023-04-01T02:04:09;99024.63;;;10.22;100.00
41830;BME280;38614;43.472;23.936;2023-04-01T02:07:03;99013.63;;;10.25;100.00
41830;BME280;38614;43.472;23.936;2023-04-01T02:09:52;99025.44;;;10.26;100.00
41830;BME280;38614;43.472;23.936;2023-04-01T02:12:44;99001.63;;;10.11;100.00
41830;BME280;38614;43.472;23.936;2023-04-01T02:15:37;99004.94;;;10.31;100.00
41830;BME280;38614;43.472;23.936;2023-04-01T02:18:28;99017.25;;;10.40;100.00
41830;BME280;38614;43.472;23.936;2023-04-01T02:21:18;99008.94;;;10.37;100.00
41830;BME280;38614;43.472;23.936;2023-04-01T02:24:11;98997.06;;;10.29;100.00
41830;BME280;38614;43.472;23.936;2023-04-01T02:27:00;99009.34;;;10.39;100.00
41830;BME280;38614;43.472;23.936;2023-04-01T02:29:50;98994.69;;;10.31;100.00
41830;BME280;38614;43.472;23.936;2023-04-01T02:32:38;98994.75;;;10.38;100.00
41830;BME280;38614;43.472;23.936;2023-04-01T02:35:27;98987.69;;;10.44;100.00
41830;BME280;38614;43.472;23.936;2023-04-01T02:38:15;98978.56;;;10.37;100.00
41830;BME280;38614;43.472;23.936;2023-04-01T02:41:04;98989.22;;;10.38;100.00
41830;BME280;38614;43.472;23.936;2023-04-01T02:43:54;98984.50;;;10.39;100.00
41830;BME280;38614;43.472;23.936;2023-04-01T02:46:51;98962.25;;;10.21;100.00
41830;BME280;38614;43.472;23.936;2023-04-01T02:49:40;98973.78;;;10.30;100.00
41830;BME280;38614;43.472;23.936;2023-04-01T02:52:29;99001.00;;;10.32;100.00
41830;BME280;38614;43.472;23.936;2023-04-01T02:55:20;98981.59;;;10.21;100.00
41830;BME280;38614;43.472;23.936;2023-04-01T02:58:08;98992.88;;;10.56;100.00
41830;BME280;38614;43.472;23.936;2023-04-01T03:00:56;98991.59;;;10.40;100.00
41830;BME280;38614;43.472;23.936;2023-04-01T03:03:43;98973.31;;;10.21;100.00
41830;BME280;38614;43.472;23.936;2023-04-01T03:06:31;98993.97;;;10.41;100.00
41830;BME280;38614;43.472;23.936;2023-04-01T03:09:19;98981.72;;;10.35;100.00
41830;BME280;38614;43.472;23.936;2023-04-01T03:12:07;99011.84;;;10.62;100.00
41830;BME280;38614;43.472;23.936;2023-04-01T03:15:05;98987.00;;;10.65;100.00
41830;BME280;38614;43.472;23.936;2023-04-01T03:17:59;99001.22;;;10.67;100.00
41830;BME280;38614;43.472;23.936;2023-04-01T03:20:46;99001.25;;;10.71;100.00
41830;BME280;38614;43.472;23.936;2023-04-01T03:23:34;98969.59;;;10.54;100.00
41830;BME280;38614;43.472;23.936;2023-04-01T03:26:22;99001.22;;;10.67;100.00
41830;BME280;38614;43.472;23.936;2023-04-01T03:29:10;99002.41;;;10.66;100.00
41830;BME280;38614;43.472;23.936;2023-04-01T03:31:58;98995.63;;;10.56;100.00
41830;BME280;38614;43.472;23.936;2023-04-01T03:34:46;99010.22;;;10.53;100.00
41830;BME280;38614;43.472;23.936;2023-04-01T03:37:34;99009.88;;;10.62;100.00
41830;BME280;38614;43.472;23.936;2023-04-01T03:40:22;98987.69;;;10.51;100.00
41830;BME280;38614;43.472;23.936;2023-04-01T03:43:16;99014.63;;;10.69;100.00
41830;BME280;38614;43.472;23.936;2023-04-01T03:46:04;99022.63;;;10.84;100.00
41830;BME280;38614;43.472;23.936;2023-04-01T03:48:52;99022.56;;;10.74;100.00
41830;BME280;38614;43.472;23.936;2023-04-01T03:51:41;99019.00;;;10.73;100.00
41830;BME280;38614;43.472;23.936;2023-04-01T03:54:30;99025.31;;;10.70;100.00
41830;BME280;38614;43.472;23.936;2023-04-01T03:57:18;99013.84;;;10.65;100.00
41830;BME280;38614;43.472;23.936;2023-04-01T04:00:07;99026.47;;;10.69;100.00
41830;BME280;38614;43.472;23.936;2023-04-01T04:02:59;99025.28;;;10.63;100.00
41830;BME280;38614;43.472;23.936;2023-04-01T04:05:52;99018.19;;;10.62;100.00
41830;BME280;38614;43.472;23.936;2023-04-01T04:08:39;99041.88;;;10.67;100.00
41830;BME280;38614;43.472;23.936;2023-04-01T04:11:27;98995.53;;;10.35;100.00
41830;BME280;38614;43.472;23.936;2023-04-01T04:14:15;99052.16;;;10.73;100.00
41830;BME280;38614;43.472;23.936;2023-04-01T04:17:05;99055.31;;;10.72;100.00
41830;BME280;38614;43.472;23.936;2023-04-01T04:19:53;99032.53;;;10.96;100.00
41830;BME280;38614;43.472;23.936;2023-04-01T04:22:41;99046.88;;;11.27;100.00
41830;BME280;38614;43.472;23.936;2023-04-01T04:25:29;99042.47;;;11.15;100.00
41830;BME280;38614;43.472;23.936;2023-04-01T04:28:17;99036.16;;;11.11;100.00
41830;BME280;38614;43.472;23.936;2023-04-01T04:31:05;99053.53;;;11.15;100.00
41830;BME280;38614;43.472;23.936;2023-04-01T04:33:55;99034.53;;;10.99;100.00
41830;BME280;38614;43.472;23.936;2023-04-01T04:36:43;99040.84;;;11.00;100.00
41830;BME280;38614;43.472;23.936;2023-04-01T04:39:31;99033.72;;;10.95;100.00
41830;BME280;38614;43.472;23.936;2023-04-01T04:42:19;99031.34;;;10.94;100.00
41830;BME280;38614;43.472;23.936;2023-04-01T04:45:07;99026.22;;;10.92;100.00
41830;BME280;38614;43.472;23.936;2023-04-01T04:47:58;99010.41;;;10.93;100.00
41830;BME280;38614;43.472;23.936;2023-04-01T04:50:48;99006.44;;;10.87;100.00
41830;BME280;38614;43.472;23.936;2023-04-01T04:53:38;99013.22;;;11.00;100.00
41830;BME280;38614;43.472;23.936;2023-04-01T04:56:26;99009.69;;;11.10;100.00
41830;BME280;38614;43.472;23.936;2023-04-01T04:59:23;99001.00;;;11.08;100.00
41830;BME280;38614;43.472;23.936;2023-04-01T05:02:36;98961.81;;;10.88;100.00
41830;BME280;38614;43.472;23.936;2023-04-01T05:05:24;99001.44;;;11.28;100.00
41830;BME280;38614;43.472;23.936;2023-04-01T05:08:12;99004.66;;;11.58;100.00
41830;BME280;38614;43.472;23.936;2023-04-01T05:11:00;98960.00;;;11.56;100.00
41830;BME280;38614;43.472;23.936;2023-04-01T05:13:49;98981.00;;;11.93;100.00
41830;BME280;38614;43.472;23.936;2023-04-01T05:16:38;98988.50;;;12.03;100.00
41830;BME280;38614;43.472;23.936;2023-04-01T05:19:26;98993.63;;;12.15;100.00
41830;BME280;38614;43.472;23.936;2023-04-01T05:22:14;98937.88;;;11.74;100.00
41830;BME280;38614;43.472;23.936;2023-04-01T05:25:04;98965.94;;;12.08;100.00
41830;BME280;38614;43.472;23.936;2023-04-01T05:27:57;98977.78;;;12.16;100.00
41830;BME280;38614;43.472;23.936;2023-04-01T05:30:45;98950.13;;;12.05;100.00
41830;BME280;38614;43.472;23.936;2023-04-01T05:33:44;98947.31;;;12.16;100.00
41830;BME280;38614;43.472;23.936;2023-04-01T05:36:32;98930.69;;;12.23;100.00
41830;BME280;38614;43.472;23.936;2023-04-01T05:39:20;98922.78;;;12.25;100.00
41830;BME280;38614;43.472;23.936;2023-04-01T05:42:08;98928.72;;;12.23;100.00
41830;BME280;38614;43.472;23.936;2023-04-01T05:44:56;98903.44;;;12.00;100.00
41830;BME280;38614;43.472;23.936;2023-04-01T05:48:02;98935.47;;;12.12;100.00
41830;BME280;38614;43.472;23.936;2023-04-01T05:50:56;98926.34;;;12.22;100.00
41830;BME280;38614;43.472;23.936;2023-04-01T05:53:44;98894.31;;;12.21;100.00
41830;BME280;38614;43.472;23.936;2023-04-01T05:56:33;98894.63;;;12.41;100.00
41830;BME280;38614;43.472;23.936;2023-04-01T05:59:21;98897.41;;;12.37;100.00
41830;BME280;38614;43.472;23.936;2023-04-01T06:02:12;98870.19;;;12.21;100.00
41830;BME280;38614;43.472;23.936;2023-04-01T06:05:13;98900.91;;;12.59;100.00
41830;BME280;38614;43.472;23.936;2023-04-01T06:08:10;98895.72;;;12.65;100.00
41830;BME280;38614;43.472;23.936;2023-04-01T06:20:08;98889.66;;;12.88;100.00
41830;BME280;38614;43.472;23.936;2023-04-01T06:30:17;98893.47;;;13.15;100.00
41830;BME280;38614;43.472;23.936;2023-04-01T06:36:31;98883.47;;;13.28;100.00
41830;BME280;38614;43.472;23.936;2023-04-01T06:49:12;98870.09;;;13.68;100.00
41830;BME280;38614;43.472;23.936;2023-04-01T06:56:08;98888.47;;;13.92;100.00
41830;BME280;38614;43.472;23.936;2023-04-01T06:59:22;98886.38;;;14.04;100.00
41830;BME280;38614;43.472;23.936;2023-04-01T07:05:19;98868.31;;;14.22;100.00
41830;BME280;38614;43.472;23.936;2023-04-01T07:08:15;98882.34;;;14.46;100.00
41830;BME280;38614;43.472;23.936;2023-04-01T07:11:23;98878.72;;;14.52;100.00
41830;BME280;38614;43.472;23.936;2023-04-01T07:14:49;98885.78;;;14.57;100.00
41830;BME280;38614;43.472;23.936;2023-04-01T07:17:42;98886.50;;;14.65;100.00
41830;BME280;38614;43.472;23.936;2023-04-01T07:20:36;98887.88;;;14.80;100.00
41830;BME280;38614;43.472;23.936;2023-04-01T07:23:29;98877.44;;;14.88;100.00
41830;BME280;38614;43.472;23.936;2023-04-01T07:26:28;98876.13;;;14.96;100.00
41830;BME280;38614;43.472;23.936;2023-04-01T07:29:30;98871.84;;;14.91;100.00
41830;BME280;38614;43.472;23.936;2023-04-01T07:35:22;98867.94;;;14.85;100.00
41830;BME280;38614;43.472;23.936;2023-04-01T07:44:59;98883.25;;;15.24;100.00
41830;BME280;38614;43.472;23.936;2023-04-01T07:48:21;98887.22;;;15.50;100.00
41830;BME280;38614;43.472;23.936;2023-04-01T07:51:20;98908.75;;;15.73;100.00
41830;BME280;38614;43.472;23.936;2023-04-01T08:03:33;98890.41;;;16.18;100.00
41830;BME280;38614;43.472;23.936;2023-04-01T08:06:35;98905.44;;;16.24;100.00
41830;BME280;38614;43.472;23.936;2023-04-01T08:19:46;98905.00;;;17.05;100.00
41830;BME280;38614;43.472;23.936;2023-04-01T08:22:42;98895.66;;;16.96;100.00
41830;BME280;38614;43.472;23.936;2023-04-01T08:25:42;98887.66;;;16.38;100.00
41830;BME280;38614;43.472;23.936;2023-04-01T08:28:37;98888.78;;;16.21;100.00
41830;BME280;38614;43.472;23.936;2023-04-01T08:32:03;98897.72;;;15.89;100.00
41830;BME280;38614;43.472;23.936;2023-04-01T08:35:11;98891.09;;;15.83;100.00
41830;BME280;38614;43.472;23.936;2023-04-01T08:38:13;98878.16;;;15.46;100.00
41830;BME280;38614;43.472;23.936;2023-04-01T08:48:22;98852.22;;;16.39;100.00
41830;BME280;38614;43.472;23.936;2023-04-01T08:58:34;98858.06;;;16.05;100.00
41830;BME280;38614;43.472;23.936;2023-04-01T09:08:32;98860.97;;;16.17;100.00
41830;BME280;38614;43.472;23.936;2023-04-01T09:18:28;98835.91;;;18.62;100.00
41830;BME280;38614;43.472;23.936;2023-04-01T09:21:35;98838.94;;;17.97;100.00
41830;BME280;38614;43.472;23.936;2023-04-01T09:24:34;98845.16;;;17.39;100.00
41830;BME280;38614;43.472;23.936;2023-04-01T09:27:33;98831.22;;;17.55;100.00
41830;BME280;38614;43.472;23.936;2023-04-01T09:53:05;98823.78;;;18.10;100.00
41830;BME280;38614;43.472;23.936;2023-04-01T09:59:24;98807.06;;;18.90;100.00
41830;BME280;38614;43.472;23.936;2023-04-01T10:10:14;98793.56;;;19.49;100.00
41830;BME280;38614;43.472;23.936;2023-04-01T10:17:13;98785.88;;;20.40;100.00
41830;BME280;38614;43.472;23.936;2023-04-01T10:36:46;98770.41;;;18.46;100.00
41830;BME280;38614;43.472;23.936;2023-04-01T10:46:16;98756.41;;;18.34;100.00
41830;BME280;38614;43.472;23.936;2023-04-01T10:49:31;98753.81;;;17.85;100.00
41830;BME280;38614;43.472;23.936;2023-04-01T10:52:52;98762.34;;;17.49;100.00
41830;BME280;38614;43.472;23.936;2023-04-01T11:23:18;98789.69;;;16.56;100.00
41830;BME280;38614;43.472;23.936;2023-04-01T11:30:26;98759.94;;;16.13;100.00
41830;BME280;38614;43.472;23.936;2023-04-01T11:33:25;98742.25;;;15.84;100.00
41830;BME280;38614;43.472;23.936;2023-04-01T11:42:48;98664.53;;;15.06;100.00
41830;BME280;38614;43.472;23.936;2023-04-01T11:46:02;98633.09;;;15.09;100.00
41830;BME280;38614;43.472;23.936;2023-04-01T11:52:17;98690.97;;;16.17;100.00
41830;BME280;38614;43.472;23.936;2023-04-01T11:55:25;98709.78;;;16.13;100.00
41830;BME280;38614;43.472;23.936;2023-04-01T12:07:19;98728.72;;;16.22;100.00
41830;BME280;38614;43.472;23.936;2023-04-01T12:10:15;98763.94;;;15.73;100.00
41830;BME280;38614;43.472;23.936;2023-04-01T12:29:18;98824.72;;;15.31;100.00
41830;BME280;38614;43.472;23.936;2023-04-01T12:44:54;98856.09;;;14.16;100.00
41830;BME280;38614;43.472;23.936;2023-04-01T12:47:56;98885.50;;;14.10;100.00
41830;BME280;38614;43.472;23.936;2023-04-01T13:09:27;98929.13;;;13.13;100.00
41830;BME280;38614;43.472;23.936;2023-04-01T13:12:36;98952.91;;;13.10;100.00
41830;BME280;38614;43.472;23.936;2023-04-01T13:15:50;98942.25;;;13.05;100.00
41830;BME280;38614;43.472;23.936;2023-04-01T13:19:07;98931.97;;;12.99;100.00
41830;BME280;38614;43.472;23.936;2023-04-01T13:25:20;98897.94;;;12.91;100.00
41830;BME280;38614;43.472;23.936;2023-04-01T13:28:18;98892.00;;;12.96;100.00
41830;BME280;38614;43.472;23.936;2023-04-01T13:49:44;98736.00;;;14.02;100.00
41830;BME280;38614;43.472;23.936;2023-04-01T13:52:56;98725.88;;;14.18;100.00
41830;BME280;38614;43.472;23.936;2023-04-01T13:56:01;98731.84;;;14.17;100.00
41830;BME280;38614;43.472;23.936;2023-04-01T14:13:46;98704.94;;;15.15;100.00
41830;BME280;38614;43.472;23.936;2023-04-01T14:17:22;98697.22;;;15.02;100.00
41830;BME280;38614;43.472;23.936;2023-04-01T14:20:40;98702.22;;;14.64;100.00
41830;BME280;38614;43.472;23.936;2023-04-01T14:30:36;98678.75;;;14.89;100.00
41830;BME280;38614;43.472;23.936;2023-04-01T14:43:10;98673.50;;;14.94;100.00
41830;BME280;38614;43.472;23.936;2023-04-01T14:49:04;98641.78;;;14.41;100.00
41830;BME280;38614;43.472;23.936;2023-04-01T14:52:11;98669.38;;;14.56;100.00
41830;BME280;38614;43.472;23.936;2023-04-01T14:55:23;98664.78;;;14.42;100.00
41830;BME280;38614;43.472;23.936;2023-04-01T14:58:16;98628.38;;;14.09;100.00
41830;BME280;38614;43.472;23.936;2023-04-01T15:05:06;98656.38;;;14.22;100.00
41830;BME280;38614;43.472;23.936;2023-04-01T15:11:23;98650.16;;;13.84;100.00
41830;BME280;38614;43.472;23.936;2023-04-01T15:23:48;98644.25;;;13.51;100.00
41830;BME280;38614;43.472;23.936;2023-04-01T15:39:37;98665.44;;;13.34;100.00
41830;BME280;38614;43.472;23.936;2023-04-01T15:58:19;98804.28;;;13.17;100.00
41830;BME280;38614;43.472;23.936;2023-04-01T16:01:44;98860.59;;;12.44;100.00
41830;BME280;38614;43.472;23.936;2023-04-01T16:10:49;98835.91;;;11.01;100.00
41830;BME280;38614;43.472;23.936;2023-04-01T16:16:53;98834.72;;;11.17;100.00
41830;BME280;38614;43.472;23.936;2023-04-01T16:22:52;98867.09;;;11.16;100.00
41830;BME280;38614;43.472;23.936;2023-04-01T16:25:46;98844.97;;;10.91;100.00
41830;BME280;38614;43.472;23.936;2023-04-01T16:28:57;98877.38;;;11.19;100.00
41830;BME280;38614;43.472;23.936;2023-04-01T16:31:54;98882.50;;;11.06;100.00
41830;BME280;38614;43.472;23.936;2023-04-01T16:38:12;98814.94;;;10.61;100.00
41830;BME280;38614;43.472;23.936;2023-04-01T16:44:24;98887.66;;;11.08;100.00
41830;BME280;38614;43.472;23.936;2023-04-01T16:47:22;98898.31;;;11.20;100.00
41830;BME280;38614;43.472;23.936;2023-04-01T16:50:25;98895.94;;;11.15;100.00
41830;BME280;38614;43.472;23.936;2023-04-01T16:53:30;98875.00;;;11.03;100.00
41830;BME280;38614;43.472;23.936;2023-04-01T16:56:38;98888.03;;;10.99;100.00
41830;BME280;38614;43.472;23.936;2023-04-01T16:59:38;98912.13;;;11.09;100.00
41830;BME280;38614;43.472;23.936;2023-04-01T17:02:33;98904.59;;;10.92;100.00
41830;BME280;38614;43.472;23.936;2023-04-01T17:08:52;98887.53;;;10.62;100.00
41830;BME280;38614;43.472;23.936;2023-04-01T17:21:00;98945.19;;;10.74;100.00
41830;BME280;38614;43.472;23.936;2023-04-01T17:23:53;98946.81;;;10.82;100.00
41830;BME280;38614;43.472;23.936;2023-04-01T17:27:12;98944.84;;;10.86;100.00
41830;BME280;38614;43.472;23.936;2023-04-01T17:36:24;98921.13;;;10.71;100.00
41830;BME280;38614;43.472;23.936;2023-04-01T17:45:47;98905.31;;;10.68;100.00
41830;BME280;38614;43.472;23.936;2023-04-01T17:52:31;98935.66;;;10.53;100.00
41830;BME280;38614;43.472;23.936;2023-04-01T17:55:34;98902.78;;;10.27;100.00
41830;BME280;38614;43.472;23.936;2023-04-01T17:58:46;98948.97;;;10.34;100.00
41830;BME280;38614;43.472;23.936;2023-04-01T18:05:20;98949.19;;;10.14;100.00
41830;BME280;38614;43.472;23.936;2023-04-01T18:11:34;98963.25;;;9.91;100.00
41830;BME280;38614;43.472;23.936;2023-04-01T18:14:50;98961.66;;;9.87;100.00
41830;BME280;38614;43.472;23.936;2023-04-01T18:23:44;98992.28;;;9.75;100.00
41830;BME280;38614;43.472;23.936;2023-04-01T18:29:52;99002.47;;;9.67;100.00
41830;BME280;38614;43.472;23.936;2023-04-01T18:36:19;99013.53;;;9.70;100.00
41830;BME280;38614;43.472;23.936;2023-04-01T18:45:37;99010.63;;;9.53;100.00
41830;BME280;38614;43.472;23.936;2023-04-01T18:48:57;99030.34;;;9.55;100.00
41830;BME280;38614;43.472;23.936;2023-04-01T18:51:57;98995.41;;;9.29;100.00
41830;BME280;38614;43.472;23.936;2023-04-01T19:04:31;99023.03;;;9.32;100.00
41830;BME280;38614;43.472;23.936;2023-04-01T19:07:40;99035.34;;;9.42;100.00
41830;BME280;38614;43.472;23.936;2023-04-01T19:10:51;99037.22;;;9.34;100.00
41830;BME280;38614;43.472;23.936;2023-04-01T19:17:13;99027.78;;;9.39;100.00
41830;BME280;38614;43.472;23.936;2023-04-01T19:35:33;99046.88;;;9.55;100.00
41830;BME280;38614;43.472;23.936;2023-04-01T19:38:43;99053.16;;;9.52;100.00
41830;BME280;38614;43.472;23.936;2023-04-01T19:41:46;99045.94;;;9.40;100.00
41830;BME280;38614;43.472;23.936;2023-04-01T19:44:55;99036.03;;;9.02;100.00
41830;BME280;38614;43.472;23.936;2023-04-01T19:50:51;99067.13;;;8.99;100.00
41830;BME280;38614;43.472;23.936;2023-04-01T19:56:58;99057.22;;;8.94;100.00
41830;BME280;38614;43.472;23.936;2023-04-01T20:16:04;99076.34;;;8.83;100.00
41830;BME280;38614;43.472;23.936;2023-04-01T20:18:59;99051.38;;;8.69;100.00
41830;BME280;38614;43.472;23.936;2023-04-01T20:21:47;99080.91;;;8.99;100.00
41830;BME280;38614;43.472;23.936;2023-04-01T20:24:45;99090.00;;;9.03;100.00
41830;BME280;38614;43.472;23.936;2023-04-01T20:27:38;99099.94;;;9.11;100.00
41830;BME280;38614;43.472;23.936;2023-04-01T20:44:43;99114.97;;;9.17;100.00
41830;BME280;38614;43.472;23.936;2023-04-01T20:54:38;99093.97;;;8.75;100.00
41830;BME280;38614;43.472;23.936;2023-04-01T21:09:55;99125.91;;;8.80;100.00
41830;BME280;38614;43.472;23.936;2023-04-01T21:19:03;99149.16;;;8.82;100.00
41830;BME280;38614;43.472;23.936;2023-04-01T21:22:20;99139.94;;;8.98;100.00
41830;BME280;38614;43.472;23.936;2023-04-01T21:25:27;99148.59;;;9.00;100.00
41830;BME280;38614;43.472;23.936;2023-04-01T22:17:51;99121.00;;;9.26;100.00
41830;BME280;38614;43.472;23.936;2023-04-01T22:30:12;99134.69;;;9.19;100.00
41830;BME280;38614;43.472;23.936;2023-04-01T22:36:32;99094.19;;;8.93;100.00
41830;BME280;38614;43.472;23.936;2023-04-01T22:42:44;99123.25;;;9.17;100.00
41830;BME280;38614;43.472;23.936;2023-04-01T22:45:52;99122.94;;;9.22;100.00
41830;BME280;38614;43.472;23.936;2023-04-01T22:48:52;99116.63;;;9.22;100.00
41830;BME280;38614;43.472;23.936;2023-04-01T22:52:30;99095.19;;;9.08;100.00
41830;BME280;38614;43.472;23.936;2023-04-01T22:54:56;99122.50;;;9.20;100.00
41830;BME280;38614;43.472;23.936;2023-04-01T22:58:04;99120.19;;;9.22;100.00
41830;BME280;38614;43.472;23.936;2023-04-01T23:00:56;99110.00;;;9.30;100.00
41830;BME280;38614;43.472;23.936;2023-04-01T23:03:49;99110.28;;;9.21;100.00
41830;BME280;38614;43.472;23.936;2023-04-01T23:06:53;99121.63;;;9.12;100.00
41830;BME280;38614;43.472;23.936;2023-04-01T23:09:43;99117.25;;;9.11;100.00
41830;BME280;38614;43.472;23.936;2023-04-01T23:12:32;99132.19;;;9.07;100.00
41830;BME280;38614;43.472;23.936;2023-04-01T23:15:21;99126.38;;;9.16;100.00
41830;BME280;38614;43.472;23.936;2023-04-01T23:21:17;99116.41;;;9.04;100.00
41830;BME280;38614;43.472;23.936;2023-04-01T23:27:31;99088.72;;;8.67;100.00
41830;BME280;38614;43.472;23.936;2023-04-01T23:33:31;99125.94;;;8.83;100.00
41830;BME280;38614;43.472;23.936;2023-04-01T23:36:19;99120.53;;;8.64;100.00
41830;BME280;38614;43.472;23.936;2023-04-01T23:39:21;99122.50;;;8.64;100.00
41830;BME280;38614;43.472;23.936;2023-04-01T23:45:17;99088.34;;;8.42;100.00
41830;BME280;38614;43.472;23.936;2023-04-01T23:48:15;99129.13;;;8.59;100.00
41830;BME280;38614;43.472;23.936;2023-04-01T23:51:20;99132.84;;;8.70;100.00
41830;BME280;38614;43.472;23.936;2023-04-01T23:57:15;99122.31;;;8.76;100.00
